createdAt,value
2017-07-11T00:00:45.748Z,94.9
2017-07-11T00:01:45.450Z,94.9
2017-07-11T00:02:44.530Z,94.7
2017-07-11T00:03:44.122Z,94.7
2017-07-11T00:04:43.707Z,94.7
2017-07-11T00:05:42.541Z,94.8
2017-07-11T00:06:41.757Z,94.8
2017-07-11T00:07:41.330Z,94.8
2017-07-11T00:08:40.788Z,94.8
2017-07-11T00:09:39.625Z,94.9
2017-07-11T00:10:39.192Z,94.9
2017-07-11T00:11:38.511Z,94.9
2017-07-11T00:12:38.088Z,94.8
2017-07-11T00:13:37.288Z,94.9
2017-07-11T00:14:36.604Z,94.9
2017-07-11T00:15:35.799Z,94.9
2017-07-11T00:16:35.127Z,94.9
2017-07-11T00:17:34.213Z,94.9
2017-07-11T00:18:33.647Z,94.9
2017-07-11T00:19:33.087Z,95
2017-07-11T00:20:32.399Z,95
2017-07-11T00:21:31.912Z,95.1
2017-07-11T00:22:30.974Z,95.1
2017-07-11T00:23:30.027Z,95.1
2017-07-11T00:24:29.605Z,95.1
2017-07-11T00:25:29.040Z,95.1
2017-07-11T00:26:28.101Z,95.1
2017-07-11T00:27:27.932Z,95.1
2017-07-11T00:28:27.001Z,95.1
2017-07-11T00:29:26.334Z,95.2
2017-07-11T00:30:25.658Z,95.2
2017-07-11T00:31:24.975Z,95.2
2017-07-11T00:32:24.535Z,95.2
2017-07-11T00:33:23.865Z,95.2
2017-07-11T00:34:22.939Z,95.2
2017-07-11T00:34:53.199Z,95.2
2017-07-11T00:35:23.702Z,95.1
2017-07-11T00:35:53.826Z,95.1
2017-07-11T00:37:20.692Z,95.2
2017-07-11T00:38:20.513Z,95.1
2017-07-11T00:39:19.453Z,95.1
2017-07-11T00:40:19.025Z,95.1
2017-07-11T00:41:18.089Z,95.2
2017-07-11T00:42:17.400Z,95.2
2017-07-11T00:43:17.108Z,95.2
2017-07-11T00:44:15.924Z,95.2
2017-07-11T00:45:15.751Z,95.2
2017-07-11T00:46:14.564Z,95.2
2017-07-11T00:46:44.950Z,95.2
2017-07-11T00:47:15.206Z,95.2
2017-07-11T00:47:45.578Z,95.2
2017-07-11T00:48:16.340Z,95.2
2017-07-11T00:48:46.599Z,95.2
2017-07-11T00:49:17.106Z,95.2
2017-07-11T00:49:47.735Z,95.2
2017-07-11T00:51:11.582Z,95.2
2017-07-11T00:52:10.579Z,95.2
2017-07-11T00:53:10.266Z,95.2
2017-07-11T00:54:09.328Z,95.2
2017-07-11T00:55:08.784Z,95.3
2017-07-11T00:56:08.099Z,95.2
2017-07-11T00:57:07.544Z,95.2
2017-07-11T00:58:06.612Z,95.2
2017-07-11T01:00:05.078Z,95.2
2017-07-11T01:01:04.528Z,95.3
2017-07-11T01:02:03.851Z,95.2
2017-07-11T01:03:03.044Z,95.2
2017-07-11T01:04:02.863Z,95.2
2017-07-11T01:05:01.924Z,95.2
2017-07-11T01:06:01.248Z,95.2
2017-07-11T01:07:00.449Z,95.2
2017-07-11T01:07:31.209Z,95.2
2017-07-11T01:08:01.463Z,95.2
2017-07-11T01:08:59.281Z,95.2
2017-07-11T01:09:58.362Z,95.2
2017-07-11T01:10:58.073Z,95.2
2017-07-11T01:11:56.884Z,95.2
2017-07-11T01:12:56.582Z,95.2
2017-07-11T01:13:56.022Z,95.2
2017-07-11T01:14:54.962Z,95.2
2017-07-11T01:15:54.288Z,95.2
2017-07-11T01:16:53.993Z,95.2
2017-07-11T01:17:52.944Z,95.2
2017-07-11T01:18:52.464Z,95.2
2017-07-11T01:19:52.036Z,95.2
2017-07-11T01:20:50.863Z,95.2
2017-07-11T01:21:50.194Z,95.2
2017-07-11T01:22:49.635Z,95.2
2017-07-11T01:23:48.836Z,95.2
2017-07-11T01:24:48.147Z,95.3
2017-07-11T01:25:47.483Z,95.3
2017-07-11T01:26:47.004Z,95.3
2017-07-11T01:27:46.328Z,95.3
2017-07-11T01:29:44.927Z,95.3
2017-07-11T01:30:44.242Z,95.3
2017-07-11T01:31:43.746Z,95.3
2017-07-11T01:32:42.686Z,95.3
2017-07-11T01:33:42.134Z,95.2
2017-07-11T01:34:41.204Z,95.1
2017-07-11T01:35:40.771Z,95.1
2017-07-11T01:36:40.090Z,95.1
2017-07-11T01:37:39.539Z,95.1
2017-07-11T01:38:38.997Z,95.1
2017-07-11T01:39:37.956Z,95.2
2017-07-11T01:40:37.409Z,95.2
2017-07-11T01:41:36.979Z,95.2
2017-07-11T01:42:36.060Z,95.2
2017-07-11T01:43:35.377Z,95.1
2017-07-11T01:44:34.702Z,95.2
2017-07-11T01:45:33.782Z,95.2
2017-07-11T01:46:33.362Z,95.2
2017-07-11T01:47:32.812Z,95.2
2017-07-11T01:48:31.508Z,95.2
2017-07-11T01:49:31.223Z,95.2
2017-07-11T01:50:30.501Z,95.2
2017-07-11T01:51:29.816Z,95.3
2017-07-11T01:52:29.140Z,95.3
2017-07-11T01:53:28.224Z,95.3
2017-07-11T01:54:27.785Z,95.3
2017-07-11T01:55:27.254Z,95.3
2017-07-11T01:56:26.453Z,95.3
2017-07-11T01:57:25.908Z,95.3
2017-07-11T01:58:25.224Z,95.3
2017-07-11T01:59:24.291Z,95.3
2017-07-11T02:00:23.819Z,95.3
2017-07-11T02:01:23.025Z,95.3
2017-07-11T02:02:22.086Z,95.3
2017-07-11T02:03:21.423Z,95.3
2017-07-11T02:04:20.750Z,95.3
2017-07-11T02:05:20.075Z,95.3
2017-07-11T02:06:19.649Z,95.3
2017-07-11T02:07:18.727Z,95.3
2017-07-11T02:08:18.046Z,95.3
2017-07-11T02:09:17.370Z,95.3
2017-07-11T02:10:17.095Z,95.3
2017-07-11T02:11:16.167Z,95.3
2017-07-11T02:12:15.496Z,95.3
2017-07-11T02:13:15.206Z,95.3
2017-07-11T02:14:14.008Z,95.3
2017-07-11T02:14:44.642Z,95.3
2017-07-11T02:15:14.897Z,95.3
2017-07-11T02:15:45.528Z,95.3
2017-07-11T02:17:12.153Z,95.3
2017-07-11T02:18:11.474Z,95.3
2017-07-11T02:19:10.801Z,95.3
2017-07-11T02:20:10.001Z,95.3
2017-07-11T02:21:09.197Z,95.3
2017-07-11T02:22:08.268Z,95.3
2017-07-11T02:23:07.851Z,95.3
2017-07-11T02:24:06.922Z,95.3
2017-07-11T02:25:06.985Z,95.4
2017-07-11T02:26:05.806Z,95.4
2017-07-11T02:27:04.873Z,95.3
2017-07-11T02:28:04.316Z,95.3
2017-07-11T02:29:03.636Z,95.3
2017-07-11T02:30:02.976Z,95.2
2017-07-11T02:31:02.042Z,95.3
2017-07-11T02:32:01.982Z,95.3
2017-07-11T02:33:01.058Z,95.3
2017-07-11T02:34:00.250Z,95.2
2017-07-11T02:34:59.557Z,95.2
2017-07-11T02:35:58.759Z,95.2
2017-07-11T02:36:58.729Z,95.2
2017-07-11T02:37:57.427Z,95.2
2017-07-11T02:38:56.868Z,95.2
2017-07-11T02:39:56.066Z,95.2
2017-07-11T02:40:55.391Z,95.2
2017-07-11T02:41:54.848Z,95.2
2017-07-11T02:42:54.304Z,95.2
2017-07-11T02:43:53.119Z,95.2
2017-07-11T02:44:52.816Z,95.2
2017-07-11T02:45:52.026Z,95.2
2017-07-11T02:46:51.597Z,95.3
2017-07-11T02:47:50.914Z,95.3
2017-07-11T02:48:49.872Z,95.3
2017-07-11T02:49:49.061Z,95.2
2017-07-11T02:50:48.514Z,95.3
2017-07-11T02:51:47.835Z,95.4
2017-07-11T02:52:46.900Z,95.2
2017-07-11T02:53:46.718Z,95.3
2017-07-11T02:54:45.672Z,95.3
2017-07-11T02:55:16.300Z,95.3
2017-07-11T02:55:46.553Z,95.2
2017-07-11T02:56:17.307Z,95.2
2017-07-11T02:56:47.558Z,95.3
2017-07-11T02:57:18.330Z,95.3
2017-07-11T02:58:43.191Z,95.3
2017-07-11T02:59:42.646Z,95.3
2017-07-11T03:00:41.983Z,95.4
2017-07-11T03:01:40.919Z,95.4
2017-07-11T03:02:40.378Z,95.4
2017-07-11T03:03:39.696Z,95.4
2017-07-11T03:04:38.901Z,95.4
2017-07-11T03:05:38.351Z,95.3
2017-07-11T03:06:37.931Z,95.4
2017-07-11T03:07:07.927Z,95.4
2017-07-11T03:07:38.552Z,95.1
2017-07-11T03:08:09.055Z,95.1
2017-07-11T03:08:39.190Z,95.2
2017-07-11T03:09:09.447Z,95.2
2017-07-11T03:09:40.201Z,95.2
2017-07-11T03:10:35.134Z,95.2
2017-07-11T03:11:33.827Z,95
2017-07-11T03:12:33.390Z,95
2017-07-11T03:13:33.282Z,95
2017-07-11T03:14:31.967Z,95
2017-07-11T03:15:31.167Z,95
2017-07-11T03:16:30.602Z,95.1
2017-07-11T03:17:29.925Z,95.1
2017-07-11T03:18:29.630Z,95.1
2017-07-11T03:19:28.437Z,95
2017-07-11T03:20:27.879Z,94.8
2017-07-11T03:21:27.327Z,94.8
2017-07-11T03:22:26.400Z,94.9
2017-07-11T03:23:25.842Z,95
2017-07-11T03:25:24.421Z,95
2017-07-11T03:26:24.126Z,95
2017-07-11T03:27:23.360Z,94.9
2017-07-11T03:28:22.296Z,95
2017-07-11T03:29:22.125Z,95
2017-07-11T03:30:21.320Z,94.7
2017-07-11T03:31:20.385Z,94.8
2017-07-11T03:32:19.586Z,94.5
2017-07-11T03:33:18.785Z,94.5
2017-07-11T03:34:18.355Z,94.4
2017-07-11T03:35:17.808Z,94.5
2017-07-11T03:36:16.629Z,94.6
2017-07-11T03:37:16.436Z,94.7
2017-07-11T03:38:16.004Z,94.6
2017-07-11T03:39:15.213Z,94.6
2017-07-11T03:40:14.539Z,94.6
2017-07-11T03:42:13.126Z,94.7
2017-07-11T03:43:12.089Z,94.7
2017-07-11T03:44:11.538Z,94.6
2017-07-11T03:45:11.003Z,94.6
2017-07-11T03:46:10.201Z,94.6
2017-07-11T03:47:09.648Z,94.7
2017-07-11T03:48:08.724Z,94.7
2017-07-11T03:49:08.288Z,94.7
2017-07-11T03:50:07.617Z,94.7
2017-07-11T03:51:06.941Z,94.7
2017-07-11T03:52:06.137Z,94.7
2017-07-11T03:53:05.087Z,94.8
2017-07-11T03:54:04.527Z,94.7
2017-07-11T03:55:03.849Z,94.8
2017-07-11T03:56:03.552Z,94.6
2017-07-11T03:57:02.872Z,94.5
2017-07-11T03:58:02.341Z,94.5
2017-07-11T03:59:01.274Z,94.6
2017-07-11T04:00:00.512Z,94.7
2017-07-11T04:00:59.964Z,94.7
2017-07-11T04:01:59.162Z,94.7
2017-07-11T04:02:58.618Z,94.8
2017-07-11T04:03:28.625Z,94.8
2017-07-11T04:03:58.984Z,94.8
2017-07-11T04:04:56.797Z,94.8
2017-07-11T04:05:56.651Z,94.8
2017-07-11T04:06:55.712Z,94.9
2017-07-11T04:07:55.161Z,94.8
2017-07-11T04:08:54.501Z,94.8
2017-07-11T04:09:53.452Z,94.8
2017-07-11T04:10:52.647Z,94.8
2017-07-11T04:11:51.971Z,94.8
2017-07-11T04:12:51.793Z,94.9
2017-07-11T04:13:50.739Z,94.9
2017-07-11T04:14:50.055Z,94.8
2017-07-11T04:15:49.636Z,94.8
2017-07-11T04:16:48.957Z,94.7
2017-07-11T04:17:48.534Z,94.7
2017-07-11T04:18:47.357Z,94.7
2017-07-11T04:19:46.797Z,94.7
2017-07-11T04:20:46.251Z,94.8
2017-07-11T04:21:45.204Z,94.8
2017-07-11T04:22:44.271Z,94.8
2017-07-11T04:23:43.590Z,94.7
2017-07-11T04:24:43.540Z,94.8
2017-07-11T04:25:42.989Z,94.6
2017-07-11T04:26:41.808Z,94.6
2017-07-11T04:27:40.997Z,94.5
2017-07-11T04:28:40.830Z,94.5
2017-07-11T04:29:40.035Z,94.4
2017-07-11T04:30:39.477Z,94.4
2017-07-11T04:31:38.550Z,93.6
2017-07-11T04:32:38.111Z,93.9
2017-07-11T04:33:37.178Z,93.8
2017-07-11T04:34:36.757Z,93.9
2017-07-11T04:35:36.394Z,93.8
2017-07-11T04:36:34.827Z,93.7
2017-07-11T04:37:34.108Z,93.7
2017-07-11T04:38:33.311Z,93.6
2017-07-11T04:39:32.762Z,93.6
2017-07-11T04:40:32.593Z,93.7
2017-07-11T04:41:31.531Z,93.8
2017-07-11T04:42:30.845Z,93.7
2017-07-11T04:43:30.159Z,93.7
2017-07-11T04:44:00.411Z,93.7
2017-07-11T04:44:30.787Z,93.7
2017-07-11T04:45:28.729Z,93.6
2017-07-11T04:46:27.917Z,93.4
2017-07-11T04:47:27.615Z,93.4
2017-07-11T04:48:27.059Z,93.4
2017-07-11T04:49:26.254Z,93.4
2017-07-11T04:50:25.889Z,93.4
2017-07-11T04:51:24.841Z,93.4
2017-07-11T04:52:24.171Z,93.3
2017-07-11T04:53:23.225Z,93.1
2017-07-11T04:54:22.800Z,93
2017-07-11T04:54:53.054Z,93
2017-07-11T04:55:23.186Z,93.1
2017-07-11T04:55:53.440Z,93.1
2017-07-11T04:56:23.693Z,93.1
2017-07-11T04:56:54.322Z,93.1
2017-07-11T04:58:19.948Z,93.1
2017-07-11T04:59:19.249Z,93
2017-07-11T05:00:18.710Z,93.1
2017-07-11T05:02:17.289Z,93.1
2017-07-11T05:03:16.607Z,93.1
2017-07-11T05:04:16.183Z,92.9
2017-07-11T05:05:15.000Z,92.9
2017-07-11T05:06:14.198Z,92.8
2017-07-11T05:07:13.521Z,92.8
2017-07-11T05:08:13.099Z,92.9
2017-07-11T05:09:12.540Z,93
2017-07-11T05:10:12.180Z,93
2017-07-11T05:11:11.000Z,93
2017-07-11T05:12:10.185Z,93.1
2017-07-11T05:13:09.763Z,93
2017-07-11T05:14:08.845Z,93
2017-07-11T05:15:08.167Z,93.1
2017-07-11T05:16:07.484Z,93
2017-07-11T05:17:06.809Z,93
2017-07-11T05:18:06.128Z,93.1
2017-07-11T05:19:05.443Z,93.1
2017-07-11T05:20:05.015Z,93.1
2017-07-11T05:21:04.079Z,93.1
2017-07-11T05:22:03.525Z,93.1
2017-07-11T05:23:02.707Z,93.1
2017-07-11T05:24:02.468Z,93.2
2017-07-11T05:25:01.276Z,93.1
2017-07-11T05:26:00.599Z,93.1
2017-07-11T05:27:00.044Z,93.1
2017-07-11T05:27:59.358Z,93.2
2017-07-11T05:28:58.814Z,93.1
2017-07-11T05:29:58.153Z,93.1
2017-07-11T05:30:57.220Z,93.2
2017-07-11T05:31:56.666Z,93.3
2017-07-11T05:32:55.990Z,93.3
2017-07-11T05:33:55.303Z,93.4
2017-07-11T05:34:54.250Z,93.5
2017-07-11T05:35:53.815Z,93.5
2017-07-11T05:37:52.648Z,93.6
2017-07-11T05:38:51.847Z,93.7
2017-07-11T05:39:51.163Z,93.6
2017-07-11T05:40:50.359Z,93.5
2017-07-11T05:41:49.680Z,93.5
2017-07-11T05:42:49.136Z,93.5
2017-07-11T05:43:48.569Z,93.5
2017-07-11T05:44:47.638Z,93.6
2017-07-11T05:45:47.218Z,93.6
2017-07-11T05:46:46.402Z,93.6
2017-07-11T05:47:45.724Z,93.6
2017-07-11T05:48:45.286Z,93.6
2017-07-11T05:49:44.731Z,93.6
2017-07-11T05:50:43.671Z,93.6
2017-07-11T05:51:42.661Z,93.7
2017-07-11T05:52:13.995Z,93.7
2017-07-11T05:52:43.489Z,93.7
2017-07-11T05:53:13.994Z,93.7
2017-07-11T05:53:44.126Z,93.7
2017-07-11T05:54:14.757Z,93.7
2017-07-11T05:55:40.138Z,93.6
2017-07-11T05:56:39.461Z,93.5
2017-07-11T05:57:38.658Z,93.5
2017-07-11T05:58:38.548Z,93.5
2017-07-11T05:59:37.881Z,93.5
2017-07-11T06:00:36.695Z,93.4
2017-07-11T06:01:36.010Z,93.3
2017-07-11T06:02:35.468Z,93.3
2017-07-11T06:03:34.920Z,93.3
2017-07-11T06:04:05.048Z,93.3
2017-07-11T06:04:35.814Z,93.2
2017-07-11T06:05:06.575Z,93.2
2017-07-11T06:06:32.698Z,93
2017-07-11T06:07:32.153Z,93
2017-07-11T06:08:31.715Z,93.1
2017-07-11T06:09:30.526Z,93.2
2017-07-11T06:10:29.974Z,93.4
2017-07-11T06:11:29.056Z,93.4
2017-07-11T06:12:28.370Z,93.4
2017-07-11T06:13:28.066Z,93.4
2017-07-11T06:14:27.140Z,93.5
2017-07-11T06:15:26.596Z,93.5
2017-07-11T06:16:25.532Z,93.5
2017-07-11T06:17:25.361Z,93.5
2017-07-11T06:18:24.793Z,93.5
2017-07-11T06:19:23.986Z,93.5
2017-07-11T06:20:23.440Z,93.6
2017-07-11T06:21:22.626Z,93.5
2017-07-11T06:21:53.128Z,93.5
2017-07-11T06:22:23.254Z,93.5
2017-07-11T06:22:53.629Z,93.5
2017-07-11T06:24:20.501Z,93.5
2017-07-11T06:25:19.959Z,93.6
2017-07-11T06:26:19.147Z,93.5
2017-07-11T06:27:18.731Z,93.6
2017-07-11T06:28:17.688Z,93.5
2017-07-11T06:29:17.247Z,93.6
2017-07-11T06:30:16.447Z,93.6
2017-07-11T06:31:15.749Z,93.6
2017-07-11T06:32:14.947Z,93.5
2017-07-11T06:33:14.519Z,93.5
2017-07-11T06:34:13.457Z,93.6
2017-07-11T06:35:13.153Z,93.6
2017-07-11T06:36:12.347Z,93.6
2017-07-11T06:37:11.779Z,93.5
2017-07-11T06:38:10.837Z,93.5
2017-07-11T06:39:10.665Z,93.6
2017-07-11T06:40:09.733Z,93.6
2017-07-11T06:41:08.927Z,93.7
2017-07-11T06:42:08.373Z,93.6
2017-07-11T06:43:07.821Z,93.6
2017-07-11T06:44:07.140Z,93.5
2017-07-11T06:44:37.392Z,93.5
2017-07-11T06:45:07.644Z,93.5
2017-07-11T06:45:37.902Z,93.5
2017-07-11T06:47:05.042Z,93.4
2017-07-11T06:48:04.370Z,93.4
2017-07-11T06:49:03.563Z,93.4
2017-07-11T06:50:02.628Z,93.4
2017-07-11T06:51:02.324Z,93.4
2017-07-11T06:52:01.523Z,93.2
2017-07-11T06:53:00.844Z,93.2
2017-07-11T06:54:00.173Z,93.2
2017-07-11T06:54:59.371Z,93.2
2017-07-11T06:55:58.692Z,93.1
2017-07-11T06:56:58.396Z,93.1
2017-07-11T06:57:58.546Z,92.9
2017-07-11T06:58:57.003Z,92.9
2017-07-11T06:59:56.314Z,92.9
2017-07-11T07:00:55.636Z,92.7
2017-07-11T07:01:54.943Z,92.7
2017-07-11T07:02:54.405Z,92.5
2017-07-11T07:03:53.852Z,92.4
2017-07-11T07:04:52.679Z,92.5
2017-07-11T07:05:52.127Z,92.5
2017-07-11T07:06:51.710Z,92.5
2017-07-11T07:07:50.896Z,92.2
2017-07-11T07:08:50.144Z,92.3
2017-07-11T07:09:49.586Z,92.2
2017-07-11T07:10:48.660Z,91.7
2017-07-11T07:11:47.871Z,91.8
2017-07-11T07:12:47.325Z,91.8
2017-07-11T07:13:46.768Z,91.6
2017-07-11T07:14:46.223Z,91.6
2017-07-11T07:15:45.557Z,91.3
2017-07-11T07:16:16.321Z,91.3
2017-07-11T07:16:46.200Z,91.2
2017-07-11T07:17:44.147Z,91.1
2017-07-11T07:18:43.461Z,91.1
2017-07-11T07:19:42.906Z,90.9
2017-07-11T07:20:42.233Z,90.9
2017-07-11T07:21:41.698Z,90.3
2017-07-11T07:22:40.887Z,90.3
2017-07-11T07:23:39.821Z,90.3
2017-07-11T07:24:39.632Z,90.3
2017-07-11T07:25:38.575Z,89.9
2017-07-11T07:26:38.286Z,89.9
2017-07-11T07:27:37.607Z,90
2017-07-11T07:28:37.182Z,90
2017-07-11T07:29:36.003Z,89.9
2017-07-11T07:30:35.336Z,89.4
2017-07-11T07:31:34.664Z,89.3
2017-07-11T07:32:33.852Z,89.7
2017-07-11T07:33:33.310Z,89.6
2017-07-11T07:34:32.640Z,89.6
2017-07-11T07:35:32.085Z,89
2017-07-11T07:36:31.150Z,89.2
2017-07-11T07:37:30.724Z,89.3
2017-07-11T07:38:30.054Z,89.4
2017-07-11T07:39:29.367Z,89.4
2017-07-11T07:40:28.561Z,89.3
2017-07-11T07:40:58.942Z,89.3
2017-07-11T07:42:27.321Z,89.5
2017-07-11T07:43:26.777Z,89.5
2017-07-11T07:44:26.099Z,89.6
2017-07-11T07:45:25.681Z,89.6
2017-07-11T07:46:24.628Z,89.4
2017-07-11T07:47:23.839Z,89.4
2017-07-11T07:48:23.531Z,89.3
2017-07-11T07:49:22.851Z,89.4
2017-07-11T07:50:22.178Z,89.4
2017-07-11T07:51:21.252Z,89.4
2017-07-11T07:52:21.080Z,89.4
2017-07-11T07:53:19.895Z,89.5
2017-07-11T07:53:50.414Z,89.5
2017-07-11T07:55:18.928Z,89.5
2017-07-11T07:56:18.814Z,89.4
2017-07-11T07:57:17.638Z,89.4
2017-07-11T07:58:16.963Z,89.5
2017-07-11T07:59:16.545Z,89.5
2017-07-11T08:00:15.859Z,89.5
2017-07-11T08:01:14.800Z,89.1
2017-07-11T08:02:14.119Z,89
2017-07-11T08:03:13.940Z,88.7
2017-07-11T08:04:13.128Z,88.2
2017-07-11T08:05:12.189Z,87.8
2017-07-11T08:06:11.433Z,87.8
2017-07-11T08:07:11.129Z,87.7
2017-07-11T08:08:09.971Z,87.4
2017-07-11T08:09:09.548Z,87.4
2017-07-11T08:10:09.002Z,87.4
2017-07-11T08:11:08.321Z,87.2
2017-07-11T08:11:38.462Z,87.2
2017-07-11T08:12:08.968Z,87.5
2017-07-11T08:12:38.980Z,87.5
2017-07-11T08:13:09.744Z,87.8
2017-07-11T08:13:40.128Z,87.8
2017-07-11T08:15:05.616Z,87.3
2017-07-11T08:16:04.946Z,87.1
2017-07-11T08:17:04.268Z,87.1
2017-07-11T08:18:03.332Z,87.1
2017-07-11T08:19:03.281Z,87.1
2017-07-11T08:20:02.463Z,86.9
2017-07-11T08:21:01.803Z,87
2017-07-11T08:22:00.999Z,86.9
2017-07-11T08:23:00.437Z,86.8
2017-07-11T08:23:59.743Z,87
2017-07-11T08:24:59.191Z,86.6
2017-07-11T08:25:58.628Z,86.8
2017-07-11T08:26:58.077Z,87.1
2017-07-11T08:27:57.145Z,86.8
2017-07-11T08:28:56.717Z,87.3
2017-07-11T08:29:56.177Z,87.2
2017-07-11T08:30:55.251Z,86.8
2017-07-11T08:31:54.705Z,86.8
2017-07-11T08:32:53.644Z,86.9
2017-07-11T08:33:53.473Z,87.1
2017-07-11T08:34:52.302Z,87.1
2017-07-11T08:35:23.075Z,87.1
2017-07-11T08:35:53.401Z,87.1
2017-07-11T08:38:49.997Z,86.2
2017-07-11T08:39:49.201Z,85.7
2017-07-11T08:40:48.651Z,84.8
2017-07-11T08:41:47.853Z,84.9
2017-07-11T08:42:47.316Z,84.4
2017-07-11T08:43:46.645Z,84.3
2017-07-11T08:44:46.098Z,84.3
2017-07-11T08:45:45.546Z,84
2017-07-11T08:46:44.862Z,83.7
2017-07-11T08:47:44.182Z,83.5
2017-07-11T08:48:43.252Z,83
2017-07-11T08:49:42.830Z,83.7
2017-07-11T08:50:42.534Z,82.8
2017-07-11T08:51:41.224Z,82.4
2017-07-11T08:52:40.925Z,82.4
2017-07-11T08:53:39.882Z,82.4
2017-07-11T08:54:39.580Z,82.6
2017-07-11T08:55:38.909Z,82.6
2017-07-11T08:56:38.490Z,82.5
2017-07-11T08:57:37.685Z,82.4
2017-07-11T08:58:37.259Z,82.5
2017-07-11T08:59:36.203Z,82.1
2017-07-11T09:00:35.517Z,82.5
2017-07-11T09:01:35.140Z,82.3
2017-07-11T09:02:34.207Z,82.4
2017-07-11T09:03:34.034Z,81.2
2017-07-11T09:04:33.104Z,81
2017-07-11T09:05:32.307Z,81
2017-07-11T09:06:31.634Z,81.2
2017-07-11T09:07:31.079Z,80.2
2017-07-11T09:08:30.404Z,80.5
2017-07-11T09:09:00.900Z,80.5
2017-07-11T09:09:31.536Z,79.6
2017-07-11T09:10:28.920Z,79.6
2017-07-11T09:11:28.375Z,79.6
2017-07-11T09:12:27.821Z,79.6
2017-07-11T09:13:27.405Z,79.4
2017-07-11T09:14:26.364Z,78.9
2017-07-11T09:15:26.182Z,78.5
2017-07-11T09:16:25.130Z,78
2017-07-11T09:17:24.451Z,78.6
2017-07-11T09:18:24.032Z,79
2017-07-11T09:19:23.747Z,79.1
2017-07-11T09:20:22.442Z,78.4
2017-07-11T09:20:52.945Z,78.4
2017-07-11T09:21:23.516Z,78.7
2017-07-11T09:21:54.015Z,78.7
2017-07-11T09:22:24.513Z,78.5
2017-07-11T09:22:55.140Z,78.5
2017-07-11T09:24:19.892Z,78.2
2017-07-11T09:25:19.460Z,78.5
2017-07-11T09:26:18.774Z,76.6
2017-07-11T09:27:18.342Z,77.1
2017-07-11T09:28:17.534Z,77.1
2017-07-11T09:29:17.109Z,77.1
2017-07-11T09:30:16.177Z,76.1
2017-07-11T09:31:15.868Z,77.3
2017-07-11T09:32:15.064Z,75.7
2017-07-11T09:33:14.129Z,76.5
2017-07-11T09:34:14.070Z,77.1
2017-07-11T09:35:13.022Z,77.1
2017-07-11T09:36:12.715Z,76.5
2017-07-11T09:37:11.906Z,76.1
2017-07-11T09:38:11.410Z,74.9
2017-07-11T09:39:10.371Z,76
2017-07-11T09:40:09.703Z,75.6
2017-07-11T09:41:09.538Z,75.1
2017-07-11T09:42:08.728Z,73.8
2017-07-11T09:43:08.063Z,74.6
2017-07-11T09:44:07.380Z,75.3
2017-07-11T09:45:06.827Z,72.1
2017-07-11T09:46:06.152Z,72.1
2017-07-11T09:47:05.217Z,72.1
2017-07-11T09:48:04.912Z,68.9
2017-07-11T09:49:03.995Z,66.8
2017-07-11T09:50:03.462Z,69.3
2017-07-11T09:51:02.900Z,70.7
2017-07-11T09:52:02.226Z,70.5
2017-07-11T09:53:01.866Z,69.4
2017-07-11T09:54:01.186Z,67.5
2017-07-11T09:55:00.363Z,67.4
2017-07-11T09:55:59.801Z,68.9
2017-07-11T09:56:59.829Z,68
2017-07-11T09:57:58.391Z,67.6
2017-07-11T09:58:57.736Z,68.5
2017-07-11T09:59:57.318Z,66
2017-07-11T10:00:27.471Z,66
2017-07-11T10:00:58.233Z,65.9
2017-07-11T10:01:28.603Z,65.9
2017-07-11T10:01:59.106Z,65
2017-07-11T10:02:29.867Z,65
2017-07-11T10:03:00.498Z,68.4
2017-07-11T10:03:30.858Z,68.4
2017-07-11T10:04:54.338Z,66
2017-07-11T10:05:53.528Z,66.8
2017-07-11T10:06:53.101Z,65
2017-07-11T10:07:52.411Z,65
2017-07-11T10:08:51.735Z,63.9
2017-07-11T10:09:50.684Z,63.9
2017-07-11T10:10:50.624Z,65.7
2017-07-11T10:11:50.062Z,64.7
2017-07-11T10:12:49.165Z,64.8
2017-07-11T10:13:19.569Z,64.8
2017-07-11T10:13:50.210Z,65.3
2017-07-11T10:14:20.469Z,65.3
2017-07-11T10:14:51.216Z,66.4
2017-07-11T10:15:21.359Z,66.4
2017-07-11T10:15:52.701Z,64.8
2017-07-11T10:16:22.330Z,64.8
2017-07-11T10:17:46.051Z,66
2017-07-11T10:18:45.754Z,65.6
2017-07-11T10:19:44.938Z,65.8
2017-07-11T10:20:44.006Z,65
2017-07-11T10:21:43.963Z,65
2017-07-11T10:22:42.792Z,65
2017-07-11T10:23:42.509Z,65
2017-07-11T10:24:42.533Z,65.3
2017-07-11T10:25:40.841Z,64.5
2017-07-11T10:26:41.041Z,64.8
2017-07-11T10:27:40.045Z,64.7
2017-07-11T10:28:39.109Z,64.8
2017-07-11T10:29:38.939Z,66.3
2017-07-11T10:30:38.405Z,64.5
2017-07-11T10:31:37.740Z,65.4
2017-07-11T10:33:36.469Z,64.4
2017-07-11T10:34:35.921Z,64.4
2017-07-11T10:35:35.251Z,63.8
2017-07-11T10:36:34.696Z,62.6
2017-07-11T10:37:34.131Z,63.3
2017-07-11T10:39:32.836Z,63.3
2017-07-11T10:40:32.148Z,63.3
2017-07-11T10:41:31.844Z,63.1
2017-07-11T10:42:31.024Z,62.3
2017-07-11T10:43:30.347Z,63.1
2017-07-11T10:44:29.721Z,63.4
2017-07-11T10:45:28.796Z,62.3
2017-07-11T10:46:28.611Z,62.3
2017-07-11T10:47:27.986Z,62.7
2017-07-11T10:48:27.421Z,63
2017-07-11T10:49:26.883Z,63.9
2017-07-11T10:50:26.074Z,61.9
2017-07-11T10:51:25.526Z,63.5
2017-07-11T10:52:24.714Z,63.1
2017-07-11T10:53:24.170Z,63.3
2017-07-11T10:54:23.357Z,62.8
2017-07-11T10:55:23.047Z,61.5
2017-07-11T10:56:22.618Z,63
2017-07-11T10:57:21.928Z,63
2017-07-11T10:58:21.123Z,63
2017-07-11T10:59:20.581Z,60.5
2017-07-11T11:00:20.030Z,61.4
2017-07-11T11:01:19.481Z,61.2
2017-07-11T11:02:18.803Z,61.3
2017-07-11T11:03:18.126Z,60.8
2017-07-11T11:04:18.196Z,61.6
2017-07-11T11:05:17.277Z,61.3
2017-07-11T11:06:16.488Z,61.9
2017-07-11T11:07:16.057Z,59.7
2017-07-11T11:08:15.394Z,60.1
2017-07-11T11:09:15.215Z,60.3
2017-07-11T11:10:14.163Z,61.5
2017-07-11T11:10:44.801Z,61.5
2017-07-11T11:11:15.441Z,59
2017-07-11T11:11:45.687Z,59
2017-07-11T11:12:15.931Z,59.9
2017-07-11T11:12:46.821Z,59.9
2017-07-11T11:13:17.075Z,61.2
2017-07-11T11:14:11.869Z,60.8
2017-07-11T11:15:11.060Z,60.8
2017-07-11T11:16:11.014Z,60.8
2017-07-11T11:17:10.324Z,61.2
2017-07-11T11:18:09.521Z,61.9
2017-07-11T11:19:09.220Z,61.4
2017-07-11T11:20:08.288Z,60.4
2017-07-11T11:21:07.855Z,61.9
2017-07-11T11:22:07.049Z,61.3
2017-07-11T11:23:06.490Z,59.4
2017-07-11T11:24:06.057Z,59.9
2017-07-11T11:25:05.623Z,59.3
2017-07-11T11:26:04.953Z,59.9
2017-07-11T11:27:04.781Z,61.1
2017-07-11T11:28:04.092Z,61.3
2017-07-11T11:29:03.970Z,60.4
2017-07-11T11:30:02.783Z,60.8
2017-07-11T11:31:02.351Z,59.2
2017-07-11T11:32:02.051Z,59
2017-07-11T11:33:00.882Z,61.1
2017-07-11T11:34:00.579Z,61.1
2017-07-11T11:34:59.896Z,59.5
2017-07-11T11:35:59.340Z,58.8
2017-07-11T11:36:58.662Z,58.9
2017-07-11T11:37:58.751Z,59.9
2017-07-11T11:38:57.431Z,60.8
2017-07-11T11:39:57.497Z,61
2017-07-11T11:40:56.697Z,59.1
2017-07-11T11:41:56.022Z,58.3
2017-07-11T11:42:55.717Z,57.3
2017-07-11T11:43:25.975Z,57.3
2017-07-11T11:43:56.603Z,58.6
2017-07-11T11:44:54.412Z,58.4
2017-07-11T11:45:53.742Z,58.3
2017-07-11T11:46:53.192Z,58.9
2017-07-11T11:47:52.892Z,59.2
2017-07-11T11:48:52.222Z,58.6
2017-07-11T11:49:51.675Z,58.2
2017-07-11T11:50:50.896Z,58.7
2017-07-11T11:51:21.652Z,58.7
2017-07-11T11:51:52.035Z,58.7
2017-07-11T11:52:22.660Z,58.7
2017-07-11T11:52:52.921Z,58.7
2017-07-11T11:53:49.601Z,58
2017-07-11T11:54:49.045Z,58.5
2017-07-11T11:55:48.544Z,59.4
2017-07-11T11:56:47.791Z,57.5
2017-07-11T11:57:47.413Z,57.4
2017-07-11T11:58:46.991Z,58.5
2017-07-11T11:59:46.307Z,57.5
2017-07-11T12:00:45.568Z,59.4
2017-07-11T12:01:44.897Z,58.1
2017-07-11T12:02:44.723Z,58.6
2017-07-11T12:03:43.916Z,58.5
2017-07-11T12:04:43.107Z,59.1
2017-07-11T12:05:13.862Z,59.1
2017-07-11T12:05:44.499Z,58.5
2017-07-11T12:06:14.750Z,58.5
2017-07-11T12:06:45.373Z,59.1
2017-07-11T12:08:40.934Z,59.4
2017-07-11T12:09:40.395Z,59.4
2017-07-11T12:10:40.252Z,59.4
2017-07-11T12:11:39.445Z,58
2017-07-11T12:12:39.262Z,58.5
2017-07-11T12:13:38.204Z,58.5
2017-07-11T12:14:37.908Z,56.5
2017-07-11T12:15:37.229Z,57.8
2017-07-11T12:16:37.186Z,58.2
2017-07-11T12:17:36.262Z,58.4
2017-07-11T12:18:35.705Z,58.8
2017-07-11T12:19:35.022Z,60.9
2017-07-11T12:20:34.347Z,59.2
2017-07-11T12:21:33.723Z,58.8
2017-07-11T12:22:33.653Z,59
2017-07-11T12:23:32.968Z,61.9
2017-07-11T12:24:32.031Z,64.4
2017-07-11T12:25:02.406Z,64.4
2017-07-11T12:26:31.415Z,72.5
2017-07-11T12:27:30.617Z,74
2017-07-11T12:28:29.949Z,74
2017-07-11T12:30:29.043Z,76.8
2017-07-11T12:31:28.491Z,77.9
2017-07-11T12:32:27.692Z,78.7
2017-07-11T12:33:27.142Z,79.2
2017-07-11T12:34:26.592Z,79.8
2017-07-11T12:35:26.177Z,80.5
2017-07-11T12:36:25.493Z,81.1
2017-07-11T12:37:25.076Z,81.2
2017-07-11T12:38:23.762Z,81.5
2017-07-11T12:39:23.456Z,82.1
2017-07-11T12:40:22.591Z,81.7
2017-07-11T12:41:22.293Z,82.2
2017-07-11T12:42:21.375Z,82.1
2017-07-11T12:43:21.212Z,82.4
2017-07-11T12:44:20.527Z,82.4
2017-07-11T12:45:19.976Z,83